首页
METAR-TAF:

METAR-TAF

机场 :

Platteville, 威斯康辛州, 美国

纬度: 42-41-22N, 经度: 090-26-40W, 海拔: 312米

当前天气观测

该预报发布于19分钟前的20:35 UTC
风速6节,风向西
温度 22°C
湿度 57%
气压 1017 hPa
能見度: 16.1公里
天空无云

METAR: KPVB 232035Z AUTO 28006KT 10SM CLR 22/13 A3003 RMK AO1 T02210125

时间: 15:54 (20:54 UTC)


TAF: 丢失

超过4000个机场的气象观测和天气预报(METAR&TAF报告)。

可查询的气象台以黄色和红色小点在地图上表示。

将鼠标移到小点上方,可查看气象台名称。

然后点击查看天气观测和预报。

如需切换地图:点击带黑十字的绿色按钮放大地图;点击带横线的绿色按钮缩小地图;或者点击绿色箭头查看邻近地区的地图。


METAR-TAF: